Terminal Aerodrome Forecast
Issued by NWS Twin Cities, MN

Home | Current Version | Previous Version | Text Only | Print | Product List | Glossary On
Versions: 1 2 3 4 5 6 7 8 9 10 11 12
000
FTUS43 KMPX 192337
TAFSTC
TAF
KSTC 192337Z 2000/2024 26004KT P6SM BKN250
     FM200300 28004KT P6SM BKN250
     FM201000 29002KT 6SM BR SCT250
     FM201600 25003KT P6SM OVC100=

USA.gov is the U.S. government's official web portal to all federal, state and local government web resources and services.